Merlo, Argentina
Current Conditions -  °F | °C
As of 3:00 PM on Monday 22 Dec 2014 (Local Time) from SAEZ Reporting Station
Clear Clear  
Wind Chill: 70°   Ceiling: Unl
Heat Index: 70°   Visibility: 6mi
Dew Point: 41°   Wind: 14mph
Humidity: 35%   Direction: 250°WSW
Pressure: 30.09"   Gusts: 25mph
Location:  34.67°S, 58.75°W
Report Text: SAEZ 221800Z 25012G22KT 210V300 CAVOK 21/05 Q1019
Loading
Personal Weather Stations






























Interactive Weather Map New forecast layout! Learn more

10-Day Weather Forecast

Advertisements
Track Severe Weather on mobile